sensor_id;sensor_type;location;lat;lon;timestamp;temperature;humidity
3705;DHT22;1868;48.918;9.438;2024-03-22T00:00:21;7.50;97.40
3705;DHT22;1868;48.918;9.438;2024-03-22T00:02:49;7.50;97.40
3705;DHT22;1868;48.918;9.438;2024-03-22T00:05:16;7.40;97.40
3705;DHT22;1868;48.918;9.438;2024-03-22T00:07:44;7.40;97.40
3705;DHT22;1868;48.918;9.438;2024-03-22T00:10:11;7.30;97.40
3705;DHT22;1868;48.918;9.438;2024-03-22T00:12:39;7.30;97.40
3705;DHT22;1868;48.918;9.438;2024-03-22T00:15:06;7.30;97.40
3705;DHT22;1868;48.918;9.438;2024-03-22T00:17:36;7.20;97.40
3705;DHT22;1868;48.918;9.438;2024-03-22T00:20:06;7.20;97.40
3705;DHT22;1868;48.918;9.438;2024-03-22T00:22:34;7.10;97.40
3705;DHT22;1868;48.918;9.438;2024-03-22T00:25:02;7.10;97.40
3705;DHT22;1868;48.918;9.438;2024-03-22T00:27:29;7.10;97.40
3705;DHT22;1868;48.918;9.438;2024-03-22T00:29:56;7.10;97.40
3705;DHT22;1868;48.918;9.438;2024-03-22T00:32:24;7.00;97.40
3705;DHT22;1868;48.918;9.438;2024-03-22T00:34:52;7.00;97.40
3705;DHT22;1868;48.918;9.438;2024-03-22T00:37:20;6.90;97.40
3705;DHT22;1868;48.918;9.438;2024-03-22T00:39:47;6.90;97.40
3705;DHT22;1868;48.918;9.438;2024-03-22T00:42:14;6.90;97.40
3705;DHT22;1868;48.918;9.438;2024-03-22T00:44:41;6.80;97.40
3705;DHT22;1868;48.918;9.438;2024-03-22T00:47:09;6.80;97.40
3705;DHT22;1868;48.918;9.438;2024-03-22T00:49:36;6.70;97.40
3705;DHT22;1868;48.918;9.438;2024-03-22T00:52:05;6.70;97.40
3705;DHT22;1868;48.918;9.438;2024-03-22T00:54:32;6.60;97.40
3705;DHT22;1868;48.918;9.438;2024-03-22T00:57:01;6.60;97.40
3705;DHT22;1868;48.918;9.438;2024-03-22T00:59:28;6.60;97.40
3705;DHT22;1868;48.918;9.438;2024-03-22T01:01:55;6.60;97.40
3705;DHT22;1868;48.918;9.438;2024-03-22T01:04:22;6.50;97.40
3705;DHT22;1868;48.918;9.438;2024-03-22T01:06:50;6.50;97.40
3705;DHT22;1868;48.918;9.438;2024-03-22T01:09:19;6.50;97.40
3705;DHT22;1868;48.918;9.438;2024-03-22T01:11:47;6.50;97.40
3705;DHT22;1868;48.918;9.438;2024-03-22T01:14:14;6.50;97.40
3705;DHT22;1868;48.918;9.438;2024-03-22T01:16:43;6.40;97.40
3705;DHT22;1868;48.918;9.438;2024-03-22T01:19:09;6.40;97.40
3705;DHT22;1868;48.918;9.438;2024-03-22T01:21:37;6.30;97.40
3705;DHT22;1868;48.918;9.438;2024-03-22T01:24:04;6.30;97.40
3705;DHT22;1868;48.918;9.438;2024-03-22T01:26:34;6.30;97.40
3705;DHT22;1868;48.918;9.438;2024-03-22T01:29:00;6.20;97.40
3705;DHT22;1868;48.918;9.438;2024-03-22T01:31:28;6.20;97.40
3705;DHT22;1868;48.918;9.438;2024-03-22T01:33:55;6.20;97.40
3705;DHT22;1868;48.918;9.438;2024-03-22T01:36:22;6.20;97.40
3705;DHT22;1868;48.918;9.438;2024-03-22T01:38:50;6.20;97.40
3705;DHT22;1868;48.918;9.438;2024-03-22T01:41:18;6.10;97.40
3705;DHT22;1868;48.918;9.438;2024-03-22T01:43:46;6.10;97.40
3705;DHT22;1868;48.918;9.438;2024-03-22T01:46:14;6.00;97.40
3705;DHT22;1868;48.918;9.438;2024-03-22T01:48:41;6.00;97.40
3705;DHT22;1868;48.918;9.438;2024-03-22T01:51:10;5.90;97.40
3705;DHT22;1868;48.918;9.438;2024-03-22T01:53:37;5.90;97.40
3705;DHT22;1868;48.918;9.438;2024-03-22T01:56:06;5.80;97.40
3705;DHT22;1868;48.918;9.438;2024-03-22T01:58:33;5.80;97.40
3705;DHT22;1868;48.918;9.438;2024-03-22T02:01:03;5.80;97.40
3705;DHT22;1868;48.918;9.438;2024-03-22T02:03:30;5.80;97.40
3705;DHT22;1868;48.918;9.438;2024-03-22T02:05:58;5.70;97.40
3705;DHT22;1868;48.918;9.438;2024-03-22T02:08:24;5.70;97.40
3705;DHT22;1868;48.918;9.438;2024-03-22T02:10:52;5.70;97.40
3705;DHT22;1868;48.918;9.438;2024-03-22T02:13:19;5.70;97.40
3705;DHT22;1868;48.918;9.438;2024-03-22T02:15:47;5.60;97.40
3705;DHT22;1868;48.918;9.438;2024-03-22T02:18:15;5.60;97.40
3705;DHT22;1868;48.918;9.438;2024-03-22T02:20:42;5.60;97.40
3705;DHT22;1868;48.918;9.438;2024-03-22T02:23:09;5.60;97.40
3705;DHT22;1868;48.918;9.438;2024-03-22T02:25:38;5.50;97.40
3705;DHT22;1868;48.918;9.438;2024-03-22T02:28:05;5.50;97.40
3705;DHT22;1868;48.918;9.438;2024-03-22T02:30:34;5.40;97.40
3705;DHT22;1868;48.918;9.438;2024-03-22T02:33:00;5.40;97.40
3705;DHT22;1868;48.918;9.438;2024-03-22T02:35:28;5.40;97.40
3705;DHT22;1868;48.918;9.438;2024-03-22T02:37:55;5.40;97.40
3705;DHT22;1868;48.918;9.438;2024-03-22T02:40:25;5.40;97.40
3705;DHT22;1868;48.918;9.438;2024-03-22T02:42:53;5.40;97.40
3705;DHT22;1868;48.918;9.438;2024-03-22T02:45:21;5.30;97.40
3705;DHT22;1868;48.918;9.438;2024-03-22T02:47:47;5.30;97.40
3705;DHT22;1868;48.918;9.438;2024-03-22T02:50:15;5.30;97.40
3705;DHT22;1868;48.918;9.438;2024-03-22T02:52:43;5.20;97.40
3705;DHT22;1868;48.918;9.438;2024-03-22T02:55:11;5.20;97.40
3705;DHT22;1868;48.918;9.438;2024-03-22T02:57:39;5.20;97.40
3705;DHT22;1868;48.918;9.438;2024-03-22T03:00:10;5.10;97.40
3705;DHT22;1868;48.918;9.438;2024-03-22T03:02:38;5.10;97.40
3705;DHT22;1868;48.918;9.438;2024-03-22T03:05:07;5.00;97.40
3705;DHT22;1868;48.918;9.438;2024-03-22T03:07:34;5.00;97.40
3705;DHT22;1868;48.918;9.438;2024-03-22T03:10:02;5.00;97.40
3705;DHT22;1868;48.918;9.438;2024-03-22T03:12:29;4.90;97.40
3705;DHT22;1868;48.918;9.438;2024-03-22T03:14:57;4.90;97.40
3705;DHT22;1868;48.918;9.438;2024-03-22T03:17:25;4.90;97.40
3705;DHT22;1868;48.918;9.438;2024-03-22T03:19:53;4.90;97.40
3705;DHT22;1868;48.918;9.438;2024-03-22T03:22:20;4.90;97.40
3705;DHT22;1868;48.918;9.438;2024-03-22T03:24:47;4.90;97.40
3705;DHT22;1868;48.918;9.438;2024-03-22T03:27:14;4.80;97.40
3705;DHT22;1868;48.918;9.438;2024-03-22T03:29:42;4.80;97.40
3705;DHT22;1868;48.918;9.438;2024-03-22T03:32:08;4.80;97.40
3705;DHT22;1868;48.918;9.438;2024-03-22T03:34:38;4.80;97.40
3705;DHT22;1868;48.918;9.438;2024-03-22T03:37:05;4.80;97.40
3705;DHT22;1868;48.918;9.438;2024-03-22T03:39:33;4.80;97.40
3705;DHT22;1868;48.918;9.438;2024-03-22T03:42:00;4.80;97.40
3705;DHT22;1868;48.918;9.438;2024-03-22T03:44:28;4.80;97.40
3705;DHT22;1868;48.918;9.438;2024-03-22T03:46:55;4.80;97.40
3705;DHT22;1868;48.918;9.438;2024-03-22T03:49:24;4.80;97.40
3705;DHT22;1868;48.918;9.438;2024-03-22T03:51:52;4.80;97.40
3705;DHT22;1868;48.918;9.438;2024-03-22T03:54:20;4.80;97.40
3705;DHT22;1868;48.918;9.438;2024-03-22T03:56:47;4.80;97.40
3705;DHT22;1868;48.918;9.438;2024-03-22T03:59:15;4.70;97.40
3705;DHT22;1868;48.918;9.438;2024-03-22T04:01:41;4.70;97.40
3705;DHT22;1868;48.918;9.438;2024-03-22T04:04:09;4.60;97.40
3705;DHT22;1868;48.918;9.438;2024-03-22T04:06:36;4.60;97.40
3705;DHT22;1868;48.918;9.438;2024-03-22T04:09:05;4.60;97.40
3705;DHT22;1868;48.918;9.438;2024-03-22T04:11:32;4.60;97.40
3705;DHT22;1868;48.918;9.438;2024-03-22T04:13:59;4.60;97.40
3705;DHT22;1868;48.918;9.438;2024-03-22T04:16:26;4.60;97.40
3705;DHT22;1868;48.918;9.438;2024-03-22T04:18:54;4.60;97.40
3705;DHT22;1868;48.918;9.438;2024-03-22T04:21:20;4.60;97.40
3705;DHT22;1868;48.918;9.438;2024-03-22T04:23:48;4.60;97.40
3705;DHT22;1868;48.918;9.438;2024-03-22T04:26:16;4.60;97.40
3705;DHT22;1868;48.918;9.438;2024-03-22T04:28:44;4.60;97.40
3705;DHT22;1868;48.918;9.438;2024-03-22T04:31:11;4.60;97.40
3705;DHT22;1868;48.918;9.438;2024-03-22T04:33:40;4.60;97.40
3705;DHT22;1868;48.918;9.438;2024-03-22T04:36:07;4.60;97.40
3705;DHT22;1868;48.918;9.438;2024-03-22T04:38:35;4.60;97.40
3705;DHT22;1868;48.918;9.438;2024-03-22T04:41:04;4.60;97.40
3705;DHT22;1868;48.918;9.438;2024-03-22T04:43:33;4.60;97.40
3705;DHT22;1868;48.918;9.438;2024-03-22T04:46:00;4.70;97.40
3705;DHT22;1868;48.918;9.438;2024-03-22T04:48:29;4.70;97.40
3705;DHT22;1868;48.918;9.438;2024-03-22T04:50:56;4.80;97.40
3705;DHT22;1868;48.918;9.438;2024-03-22T04:53:24;4.80;97.40
3705;DHT22;1868;48.918;9.438;2024-03-22T04:55:51;4.80;97.40
3705;DHT22;1868;48.918;9.438;2024-03-22T04:58:19;4.90;97.40
3705;DHT22;1868;48.918;9.438;2024-03-22T05:00:56;4.90;97.40
3705;DHT22;1868;48.918;9.438;2024-03-22T05:03:24;4.90;97.40
3705;DHT22;1868;48.918;9.438;2024-03-22T05:05:51;4.90;97.40
3705;DHT22;1868;48.918;9.438;2024-03-22T05:08:19;5.00;97.40
3705;DHT22;1868;48.918;9.438;2024-03-22T05:10:45;5.00;97.40
3705;DHT22;1868;48.918;9.438;2024-03-22T05:13:13;5.00;97.40
3705;DHT22;1868;48.918;9.438;2024-03-22T05:15:40;5.00;97.40
3705;DHT22;1868;48.918;9.438;2024-03-22T05:18:10;5.00;97.40
3705;DHT22;1868;48.918;9.438;2024-03-22T05:20:37;5.00;97.40
3705;DHT22;1868;48.918;9.438;2024-03-22T05:23:05;5.10;97.40
3705;DHT22;1868;48.918;9.438;2024-03-22T05:25:32;5.20;97.40
3705;DHT22;1868;48.918;9.438;2024-03-22T05:28:00;5.20;97.40
3705;DHT22;1868;48.918;9.438;2024-03-22T05:30:27;5.30;97.40
3705;DHT22;1868;48.918;9.438;2024-03-22T05:32:54;5.40;97.40
3705;DHT22;1868;48.918;9.438;2024-03-22T05:35:23;5.40;97.40
3705;DHT22;1868;48.918;9.438;2024-03-22T05:37:51;5.50;97.40
3705;DHT22;1868;48.918;9.438;2024-03-22T05:40:18;5.60;97.40
3705;DHT22;1868;48.918;9.438;2024-03-22T05:42:46;5.60;97.40
3705;DHT22;1868;48.918;9.438;2024-03-22T05:45:12;5.70;97.40
3705;DHT22;1868;48.918;9.438;2024-03-22T05:47:40;5.80;97.40
3705;DHT22;1868;48.918;9.438;2024-03-22T05:50:08;5.90;97.40
3705;DHT22;1868;48.918;9.438;2024-03-22T05:52:37;6.00;97.40
3705;DHT22;1868;48.918;9.438;2024-03-22T05:55:05;6.10;97.40
3705;DHT22;1868;48.918;9.438;2024-03-22T05:57:33;6.20;97.40
3705;DHT22;1868;48.918;9.438;2024-03-22T06:00:00;6.20;97.40
3705;DHT22;1868;48.918;9.438;2024-03-22T06:02:30;6.20;97.40
3705;DHT22;1868;48.918;9.438;2024-03-22T06:04:58;6.30;97.40
3705;DHT22;1868;48.918;9.438;2024-03-22T06:07:26;6.30;97.40
3705;DHT22;1868;48.918;9.438;2024-03-22T06:09:54;6.30;97.40
3705;DHT22;1868;48.918;9.438;2024-03-22T06:12:22;6.30;97.40
3705;DHT22;1868;48.918;9.438;2024-03-22T06:14:49;6.40;97.40
3705;DHT22;1868;48.918;9.438;2024-03-22T06:17:17;6.40;97.40
3705;DHT22;1868;48.918;9.438;2024-03-22T06:19:43;6.40;97.40
3705;DHT22;1868;48.918;9.438;2024-03-22T06:22:11;6.50;97.40
3705;DHT22;1868;48.918;9.438;2024-03-22T06:24:38;6.50;97.40
3705;DHT22;1868;48.918;9.438;2024-03-22T06:27:07;6.60;97.40
3705;DHT22;1868;48.918;9.438;2024-03-22T06:29:35;6.70;97.40
3705;DHT22;1868;48.918;9.438;2024-03-22T06:32:03;6.80;97.40
3705;DHT22;1868;48.918;9.438;2024-03-22T06:34:31;6.90;97.40
3705;DHT22;1868;48.918;9.438;2024-03-22T06:36:59;7.00;97.40
3705;DHT22;1868;48.918;9.438;2024-03-22T06:39:25;7.10;97.40
3705;DHT22;1868;48.918;9.438;2024-03-22T06:41:53;7.20;97.40
3705;DHT22;1868;48.918;9.438;2024-03-22T06:44:21;7.50;97.40
3705;DHT22;1868;48.918;9.438;2024-03-22T06:46:49;7.90;97.40
3705;DHT22;1868;48.918;9.438;2024-03-22T06:49:16;8.70;97.40
3705;DHT22;1868;48.918;9.438;2024-03-22T06:51:44;9.30;97.40
3705;DHT22;1868;48.918;9.438;2024-03-22T06:54:10;9.90;97.40
3705;DHT22;1868;48.918;9.438;2024-03-22T06:56:38;10.80;97.40
3705;DHT22;1868;48.918;9.438;2024-03-22T06:59:05;11.60;97.40
3705;DHT22;1868;48.918;9.438;2024-03-22T07:01:34;12.50;97.40
3705;DHT22;1868;48.918;9.438;2024-03-22T07:04:01;13.20;97.40
3705;DHT22;1868;48.918;9.438;2024-03-22T07:06:29;13.60;97.40
3705;DHT22;1868;48.918;9.438;2024-03-22T07:08:56;14.20;97.40
3705;DHT22;1868;48.918;9.438;2024-03-22T07:11:25;15.10;97.40
3705;DHT22;1868;48.918;9.438;2024-03-22T07:13:51;16.10;97.40
3705;DHT22;1868;48.918;9.438;2024-03-22T07:16:25;16.90;97.40
3705;DHT22;1868;48.918;9.438;2024-03-22T07:19:10;17.80;97.40
3705;DHT22;1868;48.918;9.438;2024-03-22T07:21:38;18.70;97.40
3705;DHT22;1868;48.918;9.438;2024-03-22T07:24:05;19.50;97.40
3705;DHT22;1868;48.918;9.438;2024-03-22T07:26:33;20.30;97.40
3705;DHT22;1868;48.918;9.438;2024-03-22T07:29:00;21.00;97.40
3705;DHT22;1868;48.918;9.438;2024-03-22T07:31:28;21.80;95.90
3705;DHT22;1868;48.918;9.438;2024-03-22T07:33:55;22.50;94.40
3705;DHT22;1868;48.918;9.438;2024-03-22T07:36:25;22.90;93.40
3705;DHT22;1868;48.918;9.438;2024-03-22T07:38:53;23.40;91.50
3705;DHT22;1868;48.918;9.438;2024-03-22T07:41:23;23.80;91.00
3705;DHT22;1868;48.918;9.438;2024-03-22T07:43:50;24.40;90.80
3705;DHT22;1868;48.918;9.438;2024-03-22T07:46:17;25.00;85.50
3705;DHT22;1868;48.918;9.438;2024-03-22T07:48:44;25.60;83.40
3705;DHT22;1868;48.918;9.438;2024-03-22T07:51:12;26.20;81.70
3705;DHT22;1868;48.918;9.438;2024-03-22T07:53:41;26.80;78.00
3705;DHT22;1868;48.918;9.438;2024-03-22T07:56:10;27.30;78.20
3705;DHT22;1868;48.918;9.438;2024-03-22T07:58:38;27.70;75.00
3705;DHT22;1868;48.918;9.438;2024-03-22T08:01:07;28.00;75.20
3705;DHT22;1868;48.918;9.438;2024-03-22T08:03:33;28.30;74.60
3705;DHT22;1868;48.918;9.438;2024-03-22T08:06:16;28.80;74.60
3705;DHT22;1868;48.918;9.438;2024-03-22T08:08:44;29.30;71.10
3705;DHT22;1868;48.918;9.438;2024-03-22T08:11:12;29.60;69.40
3705;DHT22;1868;48.918;9.438;2024-03-22T08:13:40;30.00;67.40
3705;DHT22;1868;48.918;9.438;2024-03-22T08:16:08;30.50;65.10
3705;DHT22;1868;48.918;9.438;2024-03-22T08:18:35;29.90;65.30
3705;DHT22;1868;48.918;9.438;2024-03-22T08:21:04;29.10;66.30
3705;DHT22;1868;48.918;9.438;2024-03-22T08:23:31;28.80;67.70
3705;DHT22;1868;48.918;9.438;2024-03-22T08:26:00;29.00;68.50
3705;DHT22;1868;48.918;9.438;2024-03-22T08:28:27;28.70;67.40
3705;DHT22;1868;48.918;9.438;2024-03-22T08:30:55;27.80;67.20
3705;DHT22;1868;48.918;9.438;2024-03-22T08:33:22;27.50;70.50
3705;DHT22;1868;48.918;9.438;2024-03-22T08:35:49;27.50;70.50
3705;DHT22;1868;48.918;9.438;2024-03-22T08:38:17;27.20;72.20
3705;DHT22;1868;48.918;9.438;2024-03-22T08:40:45;26.90;73.30
3705;DHT22;1868;48.918;9.438;2024-03-22T08:43:13;26.50;73.20
3705;DHT22;1868;48.918;9.438;2024-03-22T08:45:42;26.20;74.10
3705;DHT22;1868;48.918;9.438;2024-03-22T08:48:08;25.70;73.90
3705;DHT22;1868;48.918;9.438;2024-03-22T08:50:36;25.10;74.50
3705;DHT22;1868;48.918;9.438;2024-03-22T08:53:03;24.50;76.50
3705;DHT22;1868;48.918;9.438;2024-03-22T08:55:32;24.30;78.20
3705;DHT22;1868;48.918;9.438;2024-03-22T08:57:59;24.10;79.30
3705;DHT22;1868;48.918;9.438;2024-03-22T09:00:31;23.90;79.90
3705;DHT22;1868;48.918;9.438;2024-03-22T09:02:58;23.60;81.50
3705;DHT22;1868;48.918;9.438;2024-03-22T09:05:26;23.30;82.80
3705;DHT22;1868;48.918;9.438;2024-03-22T09:07:53;23.10;83.20
3705;DHT22;1868;48.918;9.438;2024-03-22T09:10:23;22.90;84.10
3705;DHT22;1868;48.918;9.438;2024-03-22T09:12:51;22.80;84.10
3705;DHT22;1868;48.918;9.438;2024-03-22T09:15:18;22.70;84.90
3705;DHT22;1868;48.918;9.438;2024-03-22T09:17:48;22.70;85.60
3705;DHT22;1868;48.918;9.438;2024-03-22T09:20:14;22.50;86.20
3705;DHT22;1868;48.918;9.438;2024-03-22T09:22:42;22.60;86.60
3705;DHT22;1868;48.918;9.438;2024-03-22T09:25:09;22.80;86.80
3705;DHT22;1868;48.918;9.438;2024-03-22T09:27:37;23.10;86.90
3705;DHT22;1868;48.918;9.438;2024-03-22T09:30:05;23.40;84.70
3705;DHT22;1868;48.918;9.438;2024-03-22T09:32:35;23.50;84.30
3705;DHT22;1868;48.918;9.438;2024-03-22T09:35:05;23.90;82.80
3705;DHT22;1868;48.918;9.438;2024-03-22T09:37:33;24.10;82.10
3705;DHT22;1868;48.918;9.438;2024-03-22T09:40:01;24.30;80.80
3705;DHT22;1868;48.918;9.438;2024-03-22T09:42:37;24.40;81.50
3705;DHT22;1868;48.918;9.438;2024-03-22T09:45:08;24.50;81.00
3705;DHT22;1868;48.918;9.438;2024-03-22T09:47:38;24.80;78.90
3705;DHT22;1868;48.918;9.438;2024-03-22T09:50:09;24.70;78.20
3705;DHT22;1868;48.918;9.438;2024-03-22T09:52:38;25.00;77.40
3705;DHT22;1868;48.918;9.438;2024-03-22T09:55:07;25.40;78.00
3705;DHT22;1868;48.918;9.438;2024-03-22T09:57:38;26.30;76.50
3705;DHT22;1868;48.918;9.438;2024-03-22T10:00:07;26.40;72.20
3705;DHT22;1868;48.918;9.438;2024-03-22T10:02:40;26.60;70.90
3705;DHT22;1868;48.918;9.438;2024-03-22T10:05:11;26.80;70.20
3705;DHT22;1868;48.918;9.438;2024-03-22T10:07:41;26.50;70.20
3705;DHT22;1868;48.918;9.438;2024-03-22T10:10:09;26.30;70.90
3705;DHT22;1868;48.918;9.438;2024-03-22T10:12:37;26.40;71.70
3705;DHT22;1868;48.918;9.438;2024-03-22T10:15:06;26.60;72.60
3705;DHT22;1868;48.918;9.438;2024-03-22T10:17:36;26.70;71.10
3705;DHT22;1868;48.918;9.438;2024-03-22T10:20:04;26.70;72.00
3705;DHT22;1868;48.918;9.438;2024-03-22T10:22:41;26.60;70.40
3705;DHT22;1868;48.918;9.438;2024-03-22T10:25:10;26.40;70.00
3705;DHT22;1868;48.918;9.438;2024-03-22T10:27:40;26.50;70.90
3705;DHT22;1868;48.918;9.438;2024-03-22T10:30:09;26.50;70.00
3705;DHT22;1868;48.918;9.438;2024-03-22T10:32:38;26.20;70.50
3705;DHT22;1868;48.918;9.438;2024-03-22T10:35:06;26.30;72.00
3705;DHT22;1868;48.918;9.438;2024-03-22T10:37:35;26.30;71.10
3705;DHT22;1868;48.918;9.438;2024-03-22T10:40:04;26.30;72.80
3705;DHT22;1868;48.918;9.438;2024-03-22T10:42:39;26.40;73.20
3705;DHT22;1868;48.918;9.438;2024-03-22T10:45:08;26.20;70.40
3705;DHT22;1868;48.918;9.438;2024-03-22T10:47:37;26.40;70.50
3705;DHT22;1868;48.918;9.438;2024-03-22T10:50:06;26.80;71.30
3705;DHT22;1868;48.918;9.438;2024-03-22T10:52:39;26.90;70.20
3705;DHT22;1868;48.918;9.438;2024-03-22T10:55:26;27.10;69.10
3705;DHT22;1868;48.918;9.438;2024-03-22T10:57:58;27.20;67.00
3705;DHT22;1868;48.918;9.438;2024-03-22T11:00:28;27.30;67.20
3705;DHT22;1868;48.918;9.438;2024-03-22T11:02:56;27.60;65.70
3705;DHT22;1868;48.918;9.438;2024-03-22T11:05:26;27.90;64.00
3705;DHT22;1868;48.918;9.438;2024-03-22T11:08:00;27.90;63.50
3705;DHT22;1868;48.918;9.438;2024-03-22T11:10:34;27.90;60.90
3705;DHT22;1868;48.918;9.438;2024-03-22T11:13:03;28.50;63.10
3705;DHT22;1868;48.918;9.438;2024-03-22T11:15:32;29.20;62.30
3705;DHT22;1868;48.918;9.438;2024-03-22T11:18:01;29.40;59.20
3705;DHT22;1868;48.918;9.438;2024-03-22T11:20:28;29.30;60.30
3705;DHT22;1868;48.918;9.438;2024-03-22T11:22:56;29.10;60.10
3705;DHT22;1868;48.918;9.438;2024-03-22T11:25:23;28.50;57.00
3705;DHT22;1868;48.918;9.438;2024-03-22T11:27:57;28.20;59.60
3705;DHT22;1868;48.918;9.438;2024-03-22T11:30:24;28.20;61.60
3705;DHT22;1868;48.918;9.438;2024-03-22T11:32:54;28.50;60.90
3705;DHT22;1868;48.918;9.438;2024-03-22T11:35:22;28.90;59.80
3705;DHT22;1868;48.918;9.438;2024-03-22T11:37:50;29.20;57.80
3705;DHT22;1868;48.918;9.438;2024-03-22T11:40:17;29.20;57.20
3705;DHT22;1868;48.918;9.438;2024-03-22T11:42:47;29.00;58.10
3705;DHT22;1868;48.918;9.438;2024-03-22T11:45:19;29.00;59.20
3705;DHT22;1868;48.918;9.438;2024-03-22T11:47:48;29.20;59.00
3705;DHT22;1868;48.918;9.438;2024-03-22T11:50:15;29.30;57.00
3705;DHT22;1868;48.918;9.438;2024-03-22T11:52:44;29.50;57.00
3705;DHT22;1868;48.918;9.438;2024-03-22T11:55:13;29.40;56.60
3705;DHT22;1868;48.918;9.438;2024-03-22T11:57:48;29.30;57.70
3705;DHT22;1868;48.918;9.438;2024-03-22T12:00:16;29.10;58.10
3705;DHT22;1868;48.918;9.438;2024-03-22T12:02:49;28.90;56.70
3705;DHT22;1868;48.918;9.438;2024-03-22T12:05:19;28.70;58.40
3705;DHT22;1868;48.918;9.438;2024-03-22T12:07:48;28.50;56.40
3705;DHT22;1868;48.918;9.438;2024-03-22T12:10:17;27.90;57.70
3705;DHT22;1868;48.918;9.438;2024-03-22T12:12:45;27.70;59.30
3705;DHT22;1868;48.918;9.438;2024-03-22T12:15:12;27.20;59.00
3705;DHT22;1868;48.918;9.438;2024-03-22T12:17:41;26.80;60.30
3705;DHT22;1868;48.918;9.438;2024-03-22T12:20:10;26.80;62.00
3705;DHT22;1868;48.918;9.438;2024-03-22T12:22:36;26.90;62.50
3705;DHT22;1868;48.918;9.438;2024-03-22T12:25:05;26.80;60.10
3705;DHT22;1868;48.918;9.438;2024-03-22T12:27:33;26.40;60.70
3705;DHT22;1868;48.918;9.438;2024-03-22T12:30:05;26.30;61.60
3705;DHT22;1868;48.918;9.438;2024-03-22T12:32:34;26.20;62.30
3705;DHT22;1868;48.918;9.438;2024-03-22T12:35:05;26.10;64.60
3705;DHT22;1868;48.918;9.438;2024-03-22T12:37:34;25.90;63.30
3705;DHT22;1868;48.918;9.438;2024-03-22T12:40:02;25.90;64.00
3705;DHT22;1868;48.918;9.438;2024-03-22T12:42:29;25.90;63.70
3705;DHT22;1868;48.918;9.438;2024-03-22T12:44:59;25.70;65.00
3705;DHT22;1868;48.918;9.438;2024-03-22T12:47:26;25.70;64.60
3705;DHT22;1868;48.918;9.438;2024-03-22T12:49:54;25.40;64.40
3705;DHT22;1868;48.918;9.438;2024-03-22T12:52:22;25.00;65.70
3705;DHT22;1868;48.918;9.438;2024-03-22T12:54:50;24.70;66.30
3705;DHT22;1868;48.918;9.438;2024-03-22T12:57:17;24.50;66.40
3705;DHT22;1868;48.918;9.438;2024-03-22T12:59:45;24.30;67.00
3705;DHT22;1868;48.918;9.438;2024-03-22T13:02:12;24.20;68.10
3705;DHT22;1868;48.918;9.438;2024-03-22T13:04:42;24.20;68.50
3705;DHT22;1868;48.918;9.438;2024-03-22T13:07:09;24.20;67.40
3705;DHT22;1868;48.918;9.438;2024-03-22T13:09:38;24.10;68.90
3705;DHT22;1868;48.918;9.438;2024-03-22T13:12:07;24.10;70.00
3705;DHT22;1868;48.918;9.438;2024-03-22T13:14:35;24.10;70.90
3705;DHT22;1868;48.918;9.438;2024-03-22T13:17:02;24.10;71.70
3705;DHT22;1868;48.918;9.438;2024-03-22T13:19:30;24.10;72.00
3705;DHT22;1868;48.918;9.438;2024-03-22T13:21:57;24.10;72.00
3705;DHT22;1868;48.918;9.438;2024-03-22T13:24:25;24.00;73.30
3705;DHT22;1868;48.918;9.438;2024-03-22T13:26:53;24.00;73.90
3705;DHT22;1868;48.918;9.438;2024-03-22T13:29:21;24.00;72.40
3705;DHT22;1868;48.918;9.438;2024-03-22T13:31:47;23.90;72.60
3705;DHT22;1868;48.918;9.438;2024-03-22T13:34:15;23.90;73.50
3705;DHT22;1868;48.918;9.438;2024-03-22T13:36:42;23.90;73.70
3705;DHT22;1868;48.918;9.438;2024-03-22T13:39:11;24.00;74.50
3705;DHT22;1868;48.918;9.438;2024-03-22T13:41:40;24.10;73.90
3705;DHT22;1868;48.918;9.438;2024-03-22T13:44:10;24.10;73.90
3705;DHT22;1868;48.918;9.438;2024-03-22T13:46:36;24.10;74.10
3705;DHT22;1868;48.918;9.438;2024-03-22T13:49:13;24.00;74.30
3705;DHT22;1868;48.918;9.438;2024-03-22T13:51:42;23.90;73.50
3705;DHT22;1868;48.918;9.438;2024-03-22T13:54:11;23.80;74.60
3705;DHT22;1868;48.918;9.438;2024-03-22T13:56:38;23.70;75.80
3705;DHT22;1868;48.918;9.438;2024-03-22T13:59:06;23.70;75.40
3705;DHT22;1868;48.918;9.438;2024-03-22T14:01:36;23.50;75.20
3705;DHT22;1868;48.918;9.438;2024-03-22T14:04:04;23.50;75.60
3705;DHT22;1868;48.918;9.438;2024-03-22T14:06:32;23.40;75.90
3705;DHT22;1868;48.918;9.438;2024-03-22T14:09:00;23.30;76.30
3705;DHT22;1868;48.918;9.438;2024-03-22T14:11:29;23.30;76.10
3705;DHT22;1868;48.918;9.438;2024-03-22T14:13:58;23.10;74.60
3705;DHT22;1868;48.918;9.438;2024-03-22T14:16:25;23.00;75.40
3705;DHT22;1868;48.918;9.438;2024-03-22T14:18:54;22.90;76.30
3705;DHT22;1868;48.918;9.438;2024-03-22T14:21:22;22.80;76.70
3705;DHT22;1868;48.918;9.438;2024-03-22T14:23:50;22.60;77.80
3705;DHT22;1868;48.918;9.438;2024-03-22T14:26:18;22.50;77.60
3705;DHT22;1868;48.918;9.438;2024-03-22T14:28:45;22.40;78.70
3705;DHT22;1868;48.918;9.438;2024-03-22T14:31:13;22.30;77.80
3705;DHT22;1868;48.918;9.438;2024-03-22T14:33:41;22.20;78.70
3705;DHT22;1868;48.918;9.438;2024-03-22T14:36:10;22.00;79.90
3705;DHT22;1868;48.918;9.438;2024-03-22T14:38:38;21.90;80.40
3705;DHT22;1868;48.918;9.438;2024-03-22T14:41:06;21.80;81.50
3705;DHT22;1868;48.918;9.438;2024-03-22T14:43:34;21.70;80.40
3705;DHT22;1868;48.918;9.438;2024-03-22T14:46:01;21.60;81.00
3705;DHT22;1868;48.918;9.438;2024-03-22T14:48:31;21.50;81.20
3705;DHT22;1868;48.918;9.438;2024-03-22T14:50:57;21.40;81.50
3705;DHT22;1868;48.918;9.438;2024-03-22T14:53:26;21.40;82.10
3705;DHT22;1868;48.918;9.438;2024-03-22T14:55:53;21.30;81.70
3705;DHT22;1868;48.918;9.438;2024-03-22T14:58:24;21.30;83.00
3705;DHT22;1868;48.918;9.438;2024-03-22T15:00:53;21.20;82.80
3705;DHT22;1868;48.918;9.438;2024-03-22T15:03:21;21.10;82.80
3705;DHT22;1868;48.918;9.438;2024-03-22T15:05:50;21.00;82.80
3705;DHT22;1868;48.918;9.438;2024-03-22T15:08:18;21.00;84.10
3705;DHT22;1868;48.918;9.438;2024-03-22T15:10:46;20.90;84.10
3705;DHT22;1868;48.918;9.438;2024-03-22T15:13:15;20.90;83.40
3705;DHT22;1868;48.918;9.438;2024-03-22T15:15:42;20.70;83.60
3705;DHT22;1868;48.918;9.438;2024-03-22T15:18:12;20.70;85.50
3705;DHT22;1868;48.918;9.438;2024-03-22T15:20:39;20.50;85.10
3705;DHT22;1868;48.918;9.438;2024-03-22T15:23:07;20.50;85.60
3705;DHT22;1868;48.918;9.438;2024-03-22T15:25:35;20.40;86.60
3705;DHT22;1868;48.918;9.438;2024-03-22T15:28:05;20.30;85.60
3705;DHT22;1868;48.918;9.438;2024-03-22T15:30:31;20.20;86.60
3705;DHT22;1868;48.918;9.438;2024-03-22T15:32:59;20.10;84.90
3705;DHT22;1868;48.918;9.438;2024-03-22T15:35:26;19.90;85.30
3705;DHT22;1868;48.918;9.438;2024-03-22T15:37:54;19.80;86.20
3705;DHT22;1868;48.918;9.438;2024-03-22T15:40:21;19.70;85.80
3705;DHT22;1868;48.918;9.438;2024-03-22T15:42:48;19.60;86.00
3705;DHT22;1868;48.918;9.438;2024-03-22T15:45:17;19.50;88.20
3705;DHT22;1868;48.918;9.438;2024-03-22T15:47:45;19.40;89.70
3705;DHT22;1868;48.918;9.438;2024-03-22T15:50:12;19.30;91.10
3705;DHT22;1868;48.918;9.438;2024-03-22T15:52:40;19.20;91.50
3705;DHT22;1868;48.918;9.438;2024-03-22T15:55:07;19.10;91.30
3705;DHT22;1868;48.918;9.438;2024-03-22T15:57:36;19.10;91.50
3705;DHT22;1868;48.918;9.438;2024-03-22T16:00:04;19.00;91.70
3705;DHT22;1868;48.918;9.438;2024-03-22T16:02:41;18.90;91.80
3705;DHT22;1868;48.918;9.438;2024-03-22T16:05:09;18.90;92.00
3705;DHT22;1868;48.918;9.438;2024-03-22T16:07:38;18.80;91.70
3705;DHT22;1868;48.918;9.438;2024-03-22T16:10:05;18.70;91.50
3705;DHT22;1868;48.918;9.438;2024-03-22T16:12:34;18.70;92.30
3705;DHT22;1868;48.918;9.438;2024-03-22T16:15:03;18.70;91.70